Bei Facebook empfehlenBei Twitter postenGoogle plusPinterest

Das Wetter im Erzgebirge am 17.10.2015

Wetter und Klima am 17.10.2015 Holzhau im Erzgebirge (630m ü.NN)
Letzte gemessene Temperatur und Uhrzeit der Messung23:45:00 Uhr4.20 °C
Temperatur (Maximum / Höchstwert) und Uhrzeit der Messung11:00:00 Uhr6.30 °C
Temperatur (Minimum / Tiefstwert) und Uhrzeit der Messung06:45:004.00 °C
Errechneter Absolutwert der Temperaturschwankungen zwischen Tmin und Tmax des Tages2.30 K
Errechnete Tagesmitteltemperatur4.79271 °C
Gesamt - Niederschlag des Tages (in flüssiger Form)8.29 Liter / m²
Luftdruck (Maximum / Höchstwert) und Zeitpunkt der Messung18:45:00 Uhr1014.90 hPa
Luftdruck (Minimum / Tiefstwert) und Zeitpunkt der Messung07:00:00 Uhr1012.40 hPa
Errechneter Absolutwert der Luftdruckschwankungen des Tages2.50 hPa
Höchste gemessene Windgeschwindigkeit und Uhrzeit der Messung23:45:00 Uhr0.00 km/h
Errechnete Windhäufigkeit in Relation zu den Messwerten des Tages0.00000 %
Niedrigste Windkühle (Windchill) und Zeitpunkt der Messung06:45:00 Uhr4.00 °C
Taupunkt (Maximum / Höchstwert) und Uhrzeit der Messung11:00:00 Uhr5.90 °C
Taupunkt (Minimum / Tiefstwert) und Uhrzeit der Messung06:45:003.40 °C
Anzahl der automatisch eingelesenen Messwerte 96

Detaillierte Wetter- und Klima- Messwerte für den 17.10.2015 in Holzhau im Erzgebirge (630m ü.NN)
ZeitTemperaturLuftdruckRel. LuftfeuchteWindWindrichtungWindchillTaupunktNiederschlag l/m²
23:45:004.20 °C1014.60 hPa96.00 %3.60 °C8.29
23:30:004.30 °C1014.80 hPa96.00 %3.70 °C7.77
23:15:004.30 °C1014.70 hPa96.00 %3.70 °C7.77
23:00:004.40 °C1014.80 hPa96.00 %3.80 °C7.25
22:45:004.40 °C1014.70 hPa96.00 %3.80 °C6.73
22:30:004.40 °C1014.60 hPa96.00 %3.80 °C6.21
22:15:004.60 °C1014.70 hPa96.00 %4.00 °C5.70
22:00:004.50 °C1014.60 hPa96.00 %3.90 °C4.66
21:45:004.50 °C1014.70 hPa96.00 %3.90 °C4.66
21:30:004.60 °C1014.70 hPa96.00 %4.00 °C4.66
21:15:004.50 °C1014.80 hPa96.00 %3.90 °C4.66
21:00:004.50 °C1014.70 hPa96.00 %3.90 °C4.66
20:45:004.50 °C1014.80 hPa96.00 %3.90 °C4.66
20:30:004.50 °C1014.80 hPa96.00 %3.90 °C4.66
20:15:004.50 °C1014.50 hPa96.00 %3.90 °C4.66
20:00:004.50 °C1014.50 hPa96.00 %3.90 °C4.66
19:45:004.60 °C1014.40 hPa96.00 %4.00 °C4.66
19:30:004.60 °C1014.70 hPa96.00 %4.00 °C4.66
19:15:004.60 °C1014.80 hPa96.00 %4.00 °C4.66
19:00:004.70 °C1014.70 hPa96.00 %4.10 °C4.66
18:45:004.70 °C1014.90 hPa96.00 %4.10 °C4.66
18:30:004.80 °C1014.80 hPa96.00 %4.20 °C4.66
18:15:004.80 °C1014.70 hPa96.00 %4.20 °C4.66
18:00:004.70 °C1014.70 hPa96.00 %4.10 °C4.66
17:45:004.70 °C1014.40 hPa96.00 %4.10 °C4.66
17:30:004.70 °C1014.50 hPa96.00 %4.10 °C4.66
17:15:004.80 °C1014.50 hPa96.00 %4.20 °C4.66
17:00:004.80 °C1014.40 hPa96.00 %4.20 °C4.66
16:45:004.90 °C1014.40 hPa96.00 %4.30 °C4.66
16:30:005.30 °C1014.30 hPa96.00 %4.70 °C4.66
16:15:005.50 °C1014.10 hPa96.00 %4.90 °C4.66
16:00:005.40 °C1014.20 hPa96.00 %4.80 °C4.66
15:45:005.30 °C1014.30 hPa96.00 %4.70 °C4.66
15:30:005.40 °C1014.40 hPa96.00 %4.80 °C4.66
15:15:005.60 °C1014.40 hPa97.00 %5.20 °C4.14
15:00:005.80 °C1014.30 hPa97.00 %5.40 °C4.14
14:45:005.60 °C1014.20 hPa97.00 %5.20 °C4.14
14:30:005.80 °C1014.20 hPa97.00 %5.40 °C4.14
14:15:005.80 °C1014.20 hPa97.00 %5.40 °C3.62
14:00:005.80 °C1014.30 hPa97.00 %5.40 °C3.62
13:45:005.50 °C1014.30 hPa96.00 %4.90 °C3.11
13:30:005.60 °C1014.20 hPa97.00 %5.20 °C3.11
13:15:005.80 °C1014.20 hPa97.00 %5.40 °C2.59
13:00:005.80 °C1014.20 hPa97.00 %5.40 °C2.59
12:45:005.60 °C1014.20 hPa97.00 %5.20 °C2.59
12:30:005.50 °C1014.20 hPa96.00 %4.90 °C2.59
12:15:005.50 °C1014.20 hPa96.00 %4.90 °C2.59
12:00:005.80 °C1014.20 hPa97.00 %5.40 °C2.59
11:45:005.90 °C1014.20 hPa97.00 %5.50 °C2.59
11:30:005.90 °C1013.80 hPa97.00 %5.50 °C2.59
11:15:006.20 °C1013.90 hPa97.00 %5.80 °C2.59
11:00:006.30 °C1013.80 hPa97.00 %5.90 °C2.59
10:45:006.20 °C1013.70 hPa97.00 %5.80 °C2.59
10:30:005.90 °C1013.50 hPa97.00 %5.50 °C2.59
10:15:005.60 °C1013.60 hPa97.00 %5.20 °C2.59
10:00:005.20 °C1013.50 hPa96.00 %4.60 °C2.59
09:45:005.20 °C1013.50 hPa96.00 %4.60 °C2.59
09:30:005.10 °C1013.10 hPa97.00 %4.70 °C2.59
09:15:004.90 °C1013.30 hPa97.00 %4.50 °C2.59
09:00:004.80 °C1013.10 hPa97.00 %4.40 °C2.59
08:45:004.70 °C1013.00 hPa97.00 %4.30 °C2.59
08:30:004.40 °C1012.90 hPa97.00 %4.00 °C2.59
08:15:004.20 °C1012.80 hPa97.00 %3.80 °C2.59
08:00:004.10 °C1012.90 hPa97.00 %3.70 °C2.59
07:45:004.10 °C1012.90 hPa97.00 %3.70 °C2.59
07:30:004.10 °C1012.60 hPa97.00 %3.70 °C2.59
07:15:004.10 °C1012.60 hPa97.00 %3.70 °C2.59
07:00:004.10 °C1012.40 hPa97.00 %3.70 °C2.59
06:45:004.00 °C1012.60 hPa96.00 %3.40 °C2.59
06:30:004.10 °C1012.60 hPa96.00 %3.50 °C2.59
06:15:004.20 °C1012.40 hPa96.00 %3.60 °C2.59
06:00:004.20 °C1012.60 hPa96.00 %3.60 °C2.59
05:45:004.30 °C1012.70 hPa96.00 %3.70 °C2.59
05:30:004.30 °C1013.00 hPa96.00 %3.70 °C2.59
05:15:004.30 °C1012.90 hPa96.00 %3.70 °C2.59
05:00:004.30 °C1012.90 hPa96.00 %3.70 °C2.59
04:45:004.20 °C1012.80 hPa96.00 %3.60 °C2.07
04:30:004.20 °C1012.80 hPa96.00 %3.60 °C2.07
04:15:004.20 °C1012.90 hPa96.00 %3.60 °C2.07
04:00:004.20 °C1013.00 hPa96.00 %3.60 °C1.55
03:45:004.20 °C1013.10 hPa96.00 %3.60 °C1.55
03:30:004.20 °C1013.00 hPa96.00 %3.60 °C1.55
03:15:004.30 °C1013.00 hPa96.00 %3.70 °C1.55
03:00:004.30 °C1013.20 hPa96.00 %3.70 °C1.03
02:45:004.30 °C1013.30 hPa96.00 %3.70 °C0.52
02:30:004.30 °C1013.10 hPa96.00 %3.70 °C0.52
02:15:004.40 °C1013.10 hPa96.00 %3.80 °C0.52
02:00:004.40 °C1013.10 hPa96.00 %3.80 °C 
01:45:004.40 °C1013.20 hPa96.00 %3.80 °C 
01:30:004.40 °C1013.20 hPa96.00 %3.80 °C 
01:15:004.40 °C1013.40 hPa96.00 %3.80 °C 
01:00:004.40 °C1013.40 hPa96.00 %3.80 °C 
00:45:004.40 °C1013.50 hPa96.00 %3.80 °C 
00:30:004.40 °C1013.60 hPa96.00 %3.80 °C 
00:15:004.40 °C1014.00 hPa96.00 %3.80 °C 
00:00:004.40 °C1014.00 hPa96.00 %3.80 °C 

Permanenter Link zu dieser Seite: Wetter im Erzgebirge am 17.10.2015
Performance-Info: Die Erstellung der Seite / Statistik(en) / Tabelle(n) erforderte 5 Datenbankserver-Abfrage(n) und dauerte 96 Millisekunden. (Dieser Messwert ist von der Gesamt-Auslastung des Servers abhängig.)
Erzgebirge - Wetter | Erzgebirge - Wetter (Mobilgeräte) | Komplette Klimadatenbank